Accueil
METAR-TAF:

METAR-TAF

Aéroports :

Base aérienne de Beauvechain

Beauvechain, Belgique

latitude: 50-45N, longitude: 004-46E, altitude: 105 m

Observation

Le bulletin a été fait il y a 46 minutes, à 19:55 UTC
Vent 1 kt de direction variable
Température 12°C
Humidité 67%
Pression 1027 hPa
Visibilité 10 km ou plus

METAR: EBBE 211955Z AUTO VRB01KT 9999 FEW046/// 12/06 Q1027 BLU

Heure: 22:41 (20:41 UTC)


TAF: absent

Observations et prévisions météorologiques de plus de 4000 aéroports (messages METAR et TAF).

Les stations disponibles sont représentées par des disques jaunes et rouges sur la carte.

Passer la souris dessus pour voir le nom de la station.

Cliquer dessus pour voir les observations et prévisions météorologiques.

Pour changer de carte: cliquez sur les boutons verts avec une croix noire pour zoomer, sur le bouton vert avec un tiret pour effectuer un zoom arrière, ou sur les flèches vertes pour les cartes adjacentes.


METAR-TAF: